createdAt,value
2018-07-30T00:00:52.680Z,23.00
2018-07-30T00:03:20.303Z,22.90
2018-07-30T00:05:48.053Z,22.90
2018-07-30T00:08:15.690Z,22.80
2018-07-30T00:10:43.269Z,22.80
2018-07-30T00:13:10.870Z,22.70
2018-07-30T00:15:38.454Z,22.70
2018-07-30T00:18:06.226Z,22.70
2018-07-30T00:20:33.826Z,22.70
2018-07-30T00:23:01.428Z,22.70
2018-07-30T00:25:29.025Z,22.70
2018-07-30T00:27:57.006Z,22.70
2018-07-30T00:30:24.670Z,22.60
2018-07-30T00:32:52.239Z,22.60
2018-07-30T00:35:19.842Z,22.60
2018-07-30T00:37:47.594Z,22.60
2018-07-30T00:40:16.466Z,22.60
2018-07-30T00:42:46.496Z,22.50
2018-07-30T00:45:14.941Z,22.50
2018-07-30T00:47:42.753Z,22.40
2018-07-30T00:52:38.073Z,22.40
2018-07-30T00:55:05.758Z,22.40
2018-07-30T00:57:33.579Z,22.30
2018-07-30T01:00:01.225Z,22.30
2018-07-30T01:02:28.864Z,22.30
2018-07-30T01:04:56.621Z,22.30
2018-07-30T01:07:24.261Z,22.30
2018-07-30T01:09:52.257Z,22.30
2018-07-30T01:12:19.881Z,22.30
2018-07-30T01:14:47.423Z,22.30
2018-07-30T01:17:15.565Z,22.30
2018-07-30T01:19:43.173Z,22.30
2018-07-30T01:24:38.273Z,22.30
2018-07-30T01:27:05.923Z,22.30
2018-07-30T01:29:33.502Z,22.20
2018-07-30T01:32:01.167Z,22.20
2018-07-30T01:34:28.780Z,22.10
2018-07-30T01:36:56.326Z,22.10
2018-07-30T01:39:24.006Z,22.10
2018-07-30T01:41:51.637Z,22.10
2018-07-30T01:44:19.188Z,22.10
2018-07-30T01:46:46.799Z,22.00
2018-07-30T01:49:14.406Z,22.00
2018-07-30T01:51:42.309Z,22.00
2018-07-30T01:54:09.894Z,22.00
2018-07-30T01:56:37.436Z,22.00
2018-07-30T01:59:05.038Z,22.00
2018-07-30T02:01:32.618Z,22.00
2018-07-30T02:04:01.286Z,21.90
2018-07-30T02:06:28.918Z,21.90
2018-07-30T02:08:56.476Z,21.90
2018-07-30T02:11:26.999Z,21.90
2018-07-30T02:13:54.603Z,21.90
2018-07-30T02:16:22.157Z,21.90
2018-07-30T02:18:49.771Z,21.90
2018-07-30T02:21:17.318Z,21.90
2018-07-30T02:23:44.961Z,21.90
2018-07-30T02:26:12.589Z,21.90
2018-07-30T02:28:40.171Z,21.90
2018-07-30T02:31:07.763Z,21.90
2018-07-30T02:33:35.377Z,21.80
2018-07-30T02:36:03.024Z,21.80
2018-07-30T02:38:30.989Z,21.80
2018-07-30T02:40:59.025Z,21.80
2018-07-30T02:43:26.652Z,21.80
2018-07-30T02:45:54.308Z,21.70
2018-07-30T02:48:22.065Z,21.70
2018-07-30T02:50:49.721Z,21.70
2018-07-30T02:53:17.478Z,21.60
2018-07-30T02:55:45.104Z,21.60
2018-07-30T02:58:12.778Z,21.60
2018-07-30T03:00:40.341Z,21.60
2018-07-30T03:03:10.150Z,21.50
2018-07-30T03:05:38.461Z,21.50
2018-07-30T03:08:06.572Z,21.50
2018-07-30T03:10:34.233Z,21.50
2018-07-30T03:13:01.847Z,21.50
2018-07-30T03:15:29.435Z,21.50
2018-07-30T03:17:57.033Z,21.40
2018-07-30T03:20:24.679Z,21.40
2018-07-30T03:22:52.239Z,21.40
2018-07-30T03:25:20.092Z,21.50
2018-07-30T03:27:47.653Z,21.50
2018-07-30T03:30:15.251Z,21.40
2018-07-30T03:32:42.891Z,21.40
2018-07-30T03:35:10.577Z,21.40
2018-07-30T03:37:38.203Z,21.40
2018-07-30T03:40:06.249Z,21.30
2018-07-30T03:42:33.889Z,21.40
2018-07-30T03:45:01.573Z,21.30
2018-07-30T03:47:29.270Z,21.40
2018-07-30T03:49:56.901Z,21.30
2018-07-30T03:52:24.505Z,21.30
2018-07-30T03:54:52.800Z,21.30
2018-07-30T03:57:20.641Z,21.30
2018-07-30T03:59:48.261Z,21.30
2018-07-30T04:02:15.900Z,21.30
2018-07-30T04:04:43.451Z,21.40
2018-07-30T04:07:11.081Z,21.50
2018-07-30T04:12:06.490Z,21.60
2018-07-30T04:14:34.022Z,21.60
2018-07-30T04:17:01.650Z,21.70
2018-07-30T04:19:29.313Z,21.80
2018-07-30T04:21:57.136Z,21.80
2018-07-30T04:24:24.740Z,21.80
2018-07-30T04:26:52.319Z,21.80
2018-07-30T04:29:19.930Z,21.80
2018-07-30T04:31:47.549Z,21.80
2018-07-30T04:34:15.077Z,21.90
2018-07-30T04:36:42.721Z,22.30
2018-07-30T04:39:12.287Z,23.10
2018-07-30T04:41:39.898Z,23.40
2018-07-30T04:44:07.636Z,23.40
2018-07-30T04:46:35.838Z,23.20
2018-07-30T04:49:03.503Z,23.10
2018-07-30T04:51:31.251Z,22.90
2018-07-30T04:56:26.386Z,22.80
2018-07-30T04:58:53.960Z,23.20
2018-07-30T05:01:21.607Z,23.70
2018-07-30T05:03:49.417Z,24.20
2018-07-30T05:06:16.990Z,25.40
2018-07-30T05:08:44.681Z,27.00
2018-07-30T05:11:12.262Z,28.70
2018-07-30T05:13:39.910Z,30.10
2018-07-30T05:16:07.550Z,31.40
2018-07-30T05:18:35.245Z,32.30
2018-07-30T05:21:02.776Z,33.10
2018-07-30T05:23:30.381Z,33.80
2018-07-30T05:25:58.031Z,34.40
2018-07-30T05:28:25.605Z,34.70
2018-07-30T05:30:53.203Z,35.40
2018-07-30T05:33:20.785Z,36.00
2018-07-30T05:35:48.401Z,36.30
2018-07-30T05:40:43.599Z,37.00
2018-07-30T05:43:11.209Z,37.20
2018-07-30T05:45:39.013Z,37.40
2018-07-30T05:48:06.967Z,37.70
2018-07-30T05:50:34.534Z,37.90
2018-07-30T05:53:02.246Z,37.90
2018-07-30T05:55:29.795Z,37.70
2018-07-30T05:57:57.441Z,37.20
2018-07-30T06:00:25.232Z,36.60
2018-07-30T06:02:53.252Z,36.10
2018-07-30T06:05:20.870Z,35.60
2018-07-30T06:07:48.472Z,35.00
2018-07-30T06:12:43.539Z,34.20
2018-07-30T06:15:11.163Z,34.00
2018-07-30T06:17:38.772Z,33.70
2018-07-30T06:20:09.053Z,33.50
2018-07-30T06:22:37.075Z,33.40
2018-07-30T06:25:05.169Z,33.20
2018-07-30T06:27:32.833Z,33.20
2018-07-30T06:30:00.402Z,33.10
2018-07-30T06:32:28.021Z,33.10
2018-07-30T06:34:55.811Z,33.10
2018-07-30T06:37:23.420Z,33.20
2018-07-30T06:39:50.965Z,33.10
2018-07-30T06:42:18.578Z,33.40
2018-07-30T06:44:46.142Z,33.60
2018-07-30T06:47:14.324Z,33.80
2018-07-30T06:49:42.101Z,34.10
2018-07-30T06:52:09.739Z,34.40
2018-07-30T06:54:37.323Z,34.50
2018-07-30T06:57:04.943Z,34.80
2018-07-30T06:59:32.521Z,35.00
2018-07-30T07:02:00.164Z,35.40
2018-07-30T07:04:27.685Z,35.90
2018-07-30T07:06:55.326Z,36.30
2018-07-30T07:09:22.985Z,36.70
2018-07-30T07:11:50.619Z,37.20
2018-07-30T07:14:18.275Z,37.60
2018-07-30T07:16:45.940Z,37.60
2018-07-30T07:19:13.457Z,37.50
2018-07-30T07:21:41.151Z,37.60
2018-07-30T07:24:08.649Z,37.90
2018-07-30T07:26:36.279Z,38.40
2018-07-30T07:29:03.861Z,38.80
2018-07-30T07:31:31.565Z,39.10
2018-07-30T07:33:59.146Z,39.50
2018-07-30T07:36:26.841Z,39.80
2018-07-30T07:38:54.427Z,40.20
2018-07-30T07:41:22.012Z,40.30
2018-07-30T07:43:49.593Z,40.60
2018-07-30T07:46:17.179Z,41.10
2018-07-30T07:48:44.773Z,41.60
2018-07-30T07:51:12.452Z,42.20
2018-07-30T07:53:40.110Z,42.60
2018-07-30T07:56:07.881Z,43.10
2018-07-30T07:58:35.510Z,44.00
2018-07-30T08:01:03.190Z,45.20
2018-07-30T08:03:30.787Z,45.80
2018-07-30T08:05:58.508Z,46.30
2018-07-30T08:08:26.113Z,46.50
2018-07-30T08:10:53.721Z,47.10
2018-07-30T08:13:21.292Z,47.60
2018-07-30T08:15:48.874Z,47.90
2018-07-30T08:18:16.430Z,48.30
2018-07-30T08:20:44.198Z,48.00
2018-07-30T08:23:11.955Z,47.70
2018-07-30T08:25:39.675Z,48.10
2018-07-30T08:28:07.363Z,48.30
2018-07-30T08:33:02.563Z,49.10
2018-07-30T08:35:30.141Z,49.80
2018-07-30T08:37:57.711Z,50.60
2018-07-30T08:40:25.310Z,51.60
2018-07-30T08:42:52.918Z,52.50
2018-07-30T08:45:20.537Z,53.50
2018-07-30T08:47:48.647Z,53.70
2018-07-30T08:50:16.317Z,53.50
2018-07-30T08:52:43.881Z,53.60
2018-07-30T08:55:11.471Z,53.80
2018-07-30T08:57:39.066Z,53.20
2018-07-30T09:00:08.005Z,51.90
2018-07-30T09:02:35.669Z,51.20
2018-07-30T09:05:03.338Z,49.60
2018-07-30T09:07:30.938Z,47.40
2018-07-30T09:09:58.552Z,45.50
2018-07-30T09:12:26.228Z,43.80
2018-07-30T09:14:53.746Z,42.20
2018-07-30T09:17:22.208Z,40.80
2018-07-30T09:19:49.848Z,39.70
2018-07-30T09:22:17.474Z,38.80
2018-07-30T09:24:45.054Z,38.20
2018-07-30T09:27:12.692Z,37.90
2018-07-30T09:29:40.185Z,37.40
2018-07-30T09:32:08.306Z,36.80
2018-07-30T09:34:36.051Z,36.50
2018-07-30T09:37:03.682Z,36.30
2018-07-30T09:39:31.240Z,36.10
2018-07-30T09:41:58.885Z,36.00
2018-07-30T09:44:26.451Z,35.90
2018-07-30T09:46:54.310Z,35.90
2018-07-30T09:49:22.017Z,35.90
2018-07-30T09:51:49.648Z,35.90
2018-07-30T09:54:17.266Z,35.90
2018-07-30T09:56:44.898Z,35.80
2018-07-30T09:59:12.661Z,35.90
2018-07-30T10:01:40.281Z,35.90
2018-07-30T10:04:08.161Z,36.10
2018-07-30T10:06:35.718Z,36.10
2018-07-30T10:09:07.747Z,36.00
2018-07-30T10:11:35.366Z,35.80
2018-07-30T10:14:03.270Z,35.70
2018-07-30T10:16:30.856Z,35.50
2018-07-30T10:18:58.403Z,35.50
2018-07-30T10:21:26.094Z,35.50
2018-07-30T10:23:53.706Z,35.40
2018-07-30T10:26:21.286Z,35.40
2018-07-30T10:28:48.830Z,35.30
2018-07-30T10:31:16.756Z,35.10
2018-07-30T10:33:44.348Z,35.00
2018-07-30T10:36:12.000Z,35.00
2018-07-30T10:38:39.607Z,35.00
2018-07-30T10:41:07.204Z,35.00
2018-07-30T10:43:34.728Z,34.90
2018-07-30T10:46:02.387Z,34.80
2018-07-30T10:48:29.912Z,34.70
2018-07-30T10:50:57.831Z,34.70
2018-07-30T10:53:25.397Z,34.80
2018-07-30T10:55:53.089Z,34.70
2018-07-30T10:58:20.626Z,34.70
2018-07-30T11:00:48.269Z,34.60
2018-07-30T11:03:15.940Z,34.60
2018-07-30T11:05:43.512Z,34.70
2018-07-30T11:08:11.155Z,34.70
2018-07-30T11:10:38.752Z,34.60
2018-07-30T11:13:06.350Z,34.70
2018-07-30T11:15:33.992Z,34.70
2018-07-30T11:18:01.705Z,34.80
2018-07-30T11:20:29.263Z,34.80
2018-07-30T11:22:56.814Z,34.80
2018-07-30T11:25:24.550Z,34.70
2018-07-30T11:27:52.141Z,34.70
2018-07-30T11:30:19.696Z,34.70
2018-07-30T11:32:47.583Z,34.60
2018-07-30T11:35:15.161Z,34.60
2018-07-30T11:37:42.778Z,34.60
2018-07-30T11:40:10.389Z,34.60
2018-07-30T11:42:38.018Z,34.60
2018-07-30T11:45:05.649Z,34.60
2018-07-30T11:47:33.231Z,34.70
2018-07-30T11:50:01.206Z,34.60
2018-07-30T11:52:28.834Z,34.80
2018-07-30T11:54:56.439Z,34.90
2018-07-30T11:57:23.971Z,34.90
2018-07-30T11:59:51.737Z,34.90
2018-07-30T12:02:19.399Z,35.00
2018-07-30T12:04:46.969Z,35.10
2018-07-30T12:07:14.561Z,35.10
2018-07-30T12:09:42.252Z,35.20
2018-07-30T12:12:09.870Z,35.30
2018-07-30T12:14:37.501Z,35.50
2018-07-30T12:17:05.074Z,35.50
2018-07-30T12:19:32.623Z,35.60
2018-07-30T12:22:00.301Z,35.70
2018-07-30T12:24:27.873Z,35.70
2018-07-30T12:26:55.452Z,35.80
2018-07-30T12:29:23.014Z,35.80
2018-07-30T12:31:50.608Z,35.90
2018-07-30T12:34:18.187Z,35.90
2018-07-30T12:36:45.827Z,36.00
2018-07-30T12:39:13.361Z,35.90
2018-07-30T12:41:41.024Z,35.70
2018-07-30T12:44:08.622Z,35.60
2018-07-30T12:46:36.208Z,35.60
2018-07-30T12:49:04.411Z,35.60
2018-07-30T12:51:31.997Z,35.70
2018-07-30T12:53:59.568Z,35.70
2018-07-30T12:56:27.190Z,35.80
2018-07-30T12:58:54.765Z,35.80
2018-07-30T13:01:22.397Z,35.80
2018-07-30T13:03:49.982Z,35.80
2018-07-30T13:06:18.178Z,35.80
2018-07-30T13:08:45.758Z,35.80
2018-07-30T13:13:40.942Z,35.70
2018-07-30T13:16:08.526Z,35.60
2018-07-30T13:18:36.084Z,35.60
2018-07-30T13:21:03.723Z,35.60
2018-07-30T13:23:31.290Z,35.80
2018-07-30T13:25:58.833Z,35.80
2018-07-30T13:28:33.165Z,35.70
2018-07-30T13:31:00.964Z,35.70
2018-07-30T13:33:28.533Z,35.80
2018-07-30T13:35:56.163Z,35.80
2018-07-30T13:38:23.761Z,35.80
2018-07-30T13:40:51.423Z,35.90
2018-07-30T13:43:19.031Z,35.90
2018-07-30T13:45:46.611Z,36.00
2018-07-30T13:48:14.224Z,35.80
2018-07-30T13:50:41.866Z,35.70
2018-07-30T13:53:09.516Z,35.60
2018-07-30T13:55:37.089Z,35.50
2018-07-30T13:58:04.734Z,35.50
2018-07-30T14:00:32.285Z,35.50
2018-07-30T14:02:59.953Z,35.50
2018-07-30T14:05:27.659Z,35.60
2018-07-30T14:07:55.203Z,35.70
2018-07-30T14:10:22.858Z,35.80
2018-07-30T14:12:50.481Z,35.80
2018-07-30T14:15:18.113Z,35.90
2018-07-30T14:17:45.659Z,35.90
2018-07-30T14:20:13.454Z,35.90
2018-07-30T14:22:41.057Z,36.00
2018-07-30T14:25:08.693Z,35.90
2018-07-30T14:27:36.308Z,35.90
2018-07-30T14:30:05.402Z,35.90
2018-07-30T14:32:32.990Z,35.90
2018-07-30T14:35:00.607Z,36.00
2018-07-30T14:37:28.275Z,36.00
2018-07-30T14:39:55.836Z,36.00
2018-07-30T14:42:23.525Z,36.10
2018-07-30T14:44:51.094Z,36.10
2018-07-30T14:47:18.666Z,36.20
2018-07-30T14:49:46.246Z,36.20
2018-07-30T14:52:13.878Z,36.20
2018-07-30T14:54:41.442Z,36.20
2018-07-30T14:57:09.112Z,36.20
2018-07-30T14:59:36.780Z,36.30
2018-07-30T15:02:04.409Z,36.30
2018-07-30T15:04:32.086Z,36.30
2018-07-30T15:06:59.720Z,36.30
2018-07-30T15:09:27.340Z,36.20
2018-07-30T15:11:55.064Z,36.10
2018-07-30T15:14:22.600Z,36.20
2018-07-30T15:19:17.795Z,36.20
2018-07-30T15:21:45.446Z,36.00
2018-07-30T15:24:12.985Z,36.00
2018-07-30T15:26:40.657Z,35.90
2018-07-30T15:29:08.272Z,35.90
2018-07-30T15:31:35.832Z,35.80
2018-07-30T15:34:03.519Z,35.80
2018-07-30T15:36:31.119Z,35.70
2018-07-30T15:38:58.734Z,35.60
2018-07-30T15:41:26.388Z,35.50
2018-07-30T15:43:54.021Z,35.50
2018-07-30T15:46:21.629Z,35.50
2018-07-30T15:48:49.240Z,35.40
2018-07-30T15:51:16.855Z,35.30
2018-07-30T15:53:44.497Z,35.20
2018-07-30T15:56:12.179Z,35.10
2018-07-30T15:58:39.728Z,35.10
2018-07-30T16:01:07.353Z,35.00
2018-07-30T16:03:35.177Z,34.90
2018-07-30T16:06:02.741Z,34.80
2018-07-30T16:08:30.314Z,34.60
2018-07-30T16:10:57.951Z,34.50
2018-07-30T16:13:25.467Z,34.40
2018-07-30T16:15:53.033Z,34.30
2018-07-30T16:18:20.624Z,34.20
2018-07-30T16:20:48.194Z,34.20
2018-07-30T16:23:15.805Z,34.30
2018-07-30T16:25:43.432Z,34.20
2018-07-30T16:28:10.976Z,34.20
2018-07-30T16:30:38.615Z,34.20
2018-07-30T16:33:06.216Z,34.20
2018-07-30T16:35:33.800Z,34.20
2018-07-30T16:38:01.487Z,34.30
2018-07-30T16:40:29.140Z,34.40
2018-07-30T16:42:56.767Z,34.50
2018-07-30T16:45:24.389Z,34.60
2018-07-30T16:47:51.985Z,34.70
2018-07-30T16:50:19.572Z,34.70
2018-07-30T16:52:47.127Z,34.70
2018-07-30T16:55:14.816Z,34.70
2018-07-30T16:57:42.426Z,34.60
2018-07-30T17:00:11.228Z,34.60
2018-07-30T17:02:39.246Z,34.60
2018-07-30T17:05:06.958Z,34.50
2018-07-30T17:07:34.518Z,34.50
2018-07-30T17:10:02.285Z,34.40
2018-07-30T17:12:29.876Z,34.40
2018-07-30T17:14:57.480Z,34.30
2018-07-30T17:17:25.581Z,34.30
2018-07-30T17:19:53.123Z,34.20
2018-07-30T17:22:20.687Z,34.20
2018-07-30T17:24:48.296Z,34.00
2018-07-30T17:27:15.908Z,34.00
2018-07-30T17:29:43.501Z,33.90
2018-07-30T17:32:11.125Z,33.80
2018-07-30T17:34:38.722Z,33.70
2018-07-30T17:37:06.499Z,33.50
2018-07-30T17:39:34.079Z,33.50
2018-07-30T17:42:01.680Z,33.30
2018-07-30T17:44:29.261Z,33.30
2018-07-30T17:46:56.881Z,33.20
2018-07-30T17:49:24.527Z,33.00
2018-07-30T17:51:52.107Z,32.90
2018-07-30T17:54:19.757Z,32.80
2018-07-30T17:56:47.359Z,32.70
2018-07-30T17:59:14.915Z,32.60
2018-07-30T18:01:42.535Z,32.50
2018-07-30T18:04:10.137Z,32.40
2018-07-30T18:06:37.725Z,32.30
2018-07-30T18:09:07.154Z,32.20
2018-07-30T18:11:34.802Z,32.10
2018-07-30T18:14:02.361Z,32.10
2018-07-30T18:16:30.032Z,32.00
2018-07-30T18:18:57.558Z,32.00
2018-07-30T18:21:25.254Z,31.90
2018-07-30T18:23:52.928Z,31.90
2018-07-30T18:26:20.794Z,31.80
2018-07-30T18:28:48.478Z,31.80
2018-07-30T18:31:16.122Z,31.80
2018-07-30T18:33:43.760Z,31.80
2018-07-30T18:36:11.386Z,31.70
2018-07-30T18:38:39.066Z,31.70
2018-07-30T18:41:06.908Z,31.50
2018-07-30T18:43:34.847Z,31.40
2018-07-30T18:46:02.479Z,31.30
2018-07-30T18:48:30.119Z,31.30
2018-07-30T18:50:57.698Z,31.10
2018-07-30T18:53:25.277Z,31.10
2018-07-30T18:55:52.979Z,31.00
2018-07-30T18:58:20.569Z,30.90
2018-07-30T19:00:48.189Z,30.90
2018-07-30T19:03:15.763Z,30.80
2018-07-30T19:05:43.390Z,30.80
2018-07-30T19:08:10.990Z,30.70
2018-07-30T19:10:38.649Z,30.60
2018-07-30T19:13:06.201Z,30.50
2018-07-30T19:15:33.945Z,30.50
2018-07-30T19:18:01.585Z,30.40
2018-07-30T19:20:29.145Z,30.30
2018-07-30T19:22:56.761Z,30.20
2018-07-30T19:25:24.369Z,30.20
2018-07-30T19:27:51.915Z,30.00
2018-07-30T19:30:19.575Z,30.00
2018-07-30T19:32:47.169Z,29.90
2018-07-30T19:35:14.801Z,29.80
2018-07-30T19:37:42.429Z,29.70
2018-07-30T19:40:10.012Z,29.50
2018-07-30T19:42:37.569Z,29.40
2018-07-30T19:45:05.965Z,29.40
2018-07-30T19:47:33.573Z,29.30
2018-07-30T19:50:01.485Z,29.20
2018-07-30T19:52:29.115Z,29.10
2018-07-30T19:54:56.713Z,29.00
2018-07-30T19:57:24.315Z,29.00
2018-07-30T19:59:51.933Z,28.90
2018-07-30T20:02:19.471Z,28.80
2018-07-30T20:04:47.345Z,28.80
2018-07-30T20:07:14.991Z,28.70
2018-07-30T20:09:42.627Z,28.50
2018-07-30T20:12:10.259Z,28.50
2018-07-30T20:14:37.846Z,28.40
2018-07-30T20:17:05.462Z,28.40
2018-07-30T20:22:00.514Z,28.30
2018-07-30T20:24:28.191Z,28.40
2018-07-30T20:26:55.730Z,28.40
2018-07-30T20:29:23.372Z,28.30
2018-07-30T20:31:50.944Z,28.20
2018-07-30T20:34:18.592Z,28.10
2018-07-30T20:36:46.306Z,28.10
2018-07-30T20:39:13.894Z,28.00
2018-07-30T20:41:41.540Z,28.00
2018-07-30T20:46:36.944Z,27.80
2018-07-30T20:49:04.576Z,27.70
2018-07-30T20:51:32.258Z,27.70
2018-07-30T20:53:59.870Z,27.60
2018-07-30T20:56:27.562Z,27.50
2018-07-30T20:58:56.611Z,27.50
2018-07-30T21:01:24.590Z,27.50
2018-07-30T21:03:52.409Z,27.40
2018-07-30T21:06:20.111Z,27.40
2018-07-30T21:08:47.750Z,27.30
2018-07-30T21:11:15.367Z,27.30
2018-07-30T21:13:42.964Z,27.20
2018-07-30T21:16:10.756Z,27.20
2018-07-30T21:18:38.577Z,27.10
2018-07-30T21:21:06.744Z,27.10
2018-07-30T21:23:34.502Z,27.10
2018-07-30T21:26:02.052Z,27.10
2018-07-30T21:28:29.703Z,27.10
2018-07-30T21:30:57.605Z,27.00
2018-07-30T21:33:25.238Z,27.00
2018-07-30T21:38:20.406Z,26.90
2018-07-30T21:40:48.389Z,26.90
2018-07-30T21:43:16.090Z,26.80
2018-07-30T21:45:43.660Z,26.80
2018-07-30T21:48:11.214Z,26.70
2018-07-30T21:50:39.030Z,26.70
2018-07-30T21:53:07.324Z,26.70
2018-07-30T21:55:34.917Z,26.60
2018-07-30T21:58:02.617Z,26.60
2018-07-30T22:00:30.335Z,26.60
2018-07-30T22:02:57.927Z,26.50
2018-07-30T22:05:25.668Z,26.50
2018-07-30T22:07:53.285Z,26.60
2018-07-30T22:10:22.730Z,26.50
2018-07-30T22:12:51.932Z,26.50
2018-07-30T22:15:19.896Z,26.50
2018-07-30T22:17:47.760Z,26.50
2018-07-30T22:20:15.412Z,26.50
2018-07-30T22:22:43.034Z,26.40
2018-07-30T22:25:10.622Z,26.30
2018-07-30T22:27:38.248Z,26.40
2018-07-30T22:30:07.877Z,26.30
2018-07-30T22:37:31.446Z,26.20
2018-07-30T22:39:59.025Z,26.10
2018-07-30T22:42:26.656Z,26.10
2018-07-30T22:44:54.336Z,26.10
2018-07-30T22:47:22.024Z,26.20
2018-07-30T22:49:49.744Z,26.00
2018-07-30T22:52:17.333Z,26.00
2018-07-30T22:54:45.221Z,26.00
2018-07-30T22:57:12.919Z,25.90
2018-07-30T22:59:40.556Z,25.90
2018-07-30T23:02:08.389Z,25.90
2018-07-30T23:04:36.116Z,25.90
2018-07-30T23:07:03.713Z,25.90
2018-07-30T23:09:31.250Z,25.80
2018-07-30T23:11:58.894Z,25.80
2018-07-30T23:14:26.450Z,25.80
2018-07-30T23:16:54.095Z,25.70
2018-07-30T23:19:21.731Z,25.70
2018-07-30T23:21:49.351Z,25.70
2018-07-30T23:24:16.959Z,25.70
2018-07-30T23:26:44.638Z,25.70
2018-07-30T23:29:12.258Z,25.70
2018-07-30T23:31:39.897Z,25.70
2018-07-30T23:34:07.488Z,25.70
2018-07-30T23:36:35.091Z,25.70
2018-07-30T23:39:02.849Z,25.70
2018-07-30T23:41:30.469Z,25.60
2018-07-30T23:43:58.036Z,25.60
2018-07-30T23:46:25.737Z,25.50
2018-07-30T23:48:53.477Z,25.50
2018-07-30T23:51:21.065Z,25.40
2018-07-30T23:53:48.722Z,25.40
2018-07-30T23:56:16.311Z,25.40
2018-07-30T23:58:43.939Z,25.30
